West Buechel, Kentucky
Current Conditions -  °F | °C
As of 4:53 PM on Wednesday 22 Oct 2014 (Local Time) from KLOU Reporting Station
Clear Clear  
Wind Chill: 61°   Ceiling: Unl
Heat Index: 61°   Visibility: 10mi
Dew Point: 41°   Wind: 6mph
Humidity: 48%   Direction: 20°NNE
Pressure: 30.24"   Gusts: NA
Location:  38.1869°N, 85.6523°W
Report Text: KLOU 222053Z 02005KT 10SM CLR 16/05 A3024 RMK AO2 SLP241 T01610050 56013
Loading
Personal Weather Stations






























Interactive Weather Map
Tropical Storm Tracking
New forecast layout! Learn more

10-Day Weather Forecast

Advertisements
Track Severe Weather on mobile